createdAt,value
2022-09-14T00:01:25.681Z,48.90
2022-09-14T00:04:00.570Z,48.74
2022-09-14T00:06:28.932Z,48.68
2022-09-14T00:08:58.139Z,48.92
2022-09-14T00:11:27.226Z,48.83
2022-09-14T00:13:58.273Z,49.04
2022-09-14T00:16:30.998Z,48.81
2022-09-14T00:19:01.002Z,48.93
2022-09-14T00:21:29.008Z,48.85
2022-09-14T00:23:58.610Z,48.76
2022-09-14T00:26:26.406Z,48.92
2022-09-14T00:28:56.096Z,49.00
2022-09-14T00:31:24.492Z,49.08
2022-09-14T00:33:54.264Z,49.38
2022-09-14T00:36:24.307Z,49.00
2022-09-14T00:38:51.634Z,49.48
2022-09-14T00:41:21.746Z,49.38
2022-09-14T00:44:28.250Z,49.39
2022-09-14T00:46:56.705Z,49.36
2022-09-14T00:49:37.774Z,49.55
2022-09-14T00:52:18.873Z,49.29
2022-09-14T00:54:51.633Z,49.44
2022-09-14T00:57:19.505Z,49.66
2022-09-14T00:59:48.260Z,49.68
2022-09-14T01:02:15.527Z,49.73
2022-09-14T01:04:44.297Z,49.95
2022-09-14T01:07:33.814Z,50.00
2022-09-14T01:10:09.027Z,49.97
2022-09-14T01:12:52.827Z,50.14
2022-09-14T01:15:53.338Z,49.96
2022-09-14T01:18:38.752Z,50.28
2022-09-14T01:21:11.202Z,50.12
2022-09-14T01:23:59.471Z,50.12
2022-09-14T01:26:55.449Z,50.64
2022-09-14T01:29:47.635Z,50.45
2022-09-14T01:32:21.106Z,50.51
2022-09-14T01:35:35.886Z,50.90
2022-09-14T01:38:19.437Z,50.87
2022-09-14T01:40:49.283Z,51.19
2022-09-14T01:43:48.831Z,51.27
2022-09-14T01:46:20.179Z,51.19
2022-09-14T01:48:57.877Z,51.11
2022-09-14T01:51:36.254Z,51.54
2022-09-14T01:54:28.937Z,51.58
2022-09-14T01:57:08.389Z,51.46
2022-09-14T01:59:43.404Z,51.75
2022-09-14T02:02:14.840Z,51.71
2022-09-14T02:05:08.975Z,51.87
2022-09-14T02:07:37.617Z,51.72
2022-09-14T02:10:09.174Z,52.33
2022-09-14T02:12:36.373Z,52.44
2022-09-14T02:15:07.591Z,52.27
2022-09-14T02:17:34.178Z,52.50
2022-09-14T02:20:04.528Z,52.25
2022-09-14T02:22:31.524Z,52.68
2022-09-14T02:25:00.223Z,52.49
2022-09-14T02:27:26.827Z,52.95
2022-09-14T02:29:53.789Z,53.03
2022-09-14T02:32:20.424Z,53.06
2022-09-14T02:35:23.917Z,53.47
2022-09-14T02:38:29.339Z,53.23
2022-09-14T02:41:16.421Z,53.27
2022-09-14T02:43:59.284Z,53.46
2022-09-14T02:46:35.112Z,53.74
2022-09-14T02:49:16.091Z,53.69
2022-09-14T02:52:01.312Z,53.66
2022-09-14T02:54:37.621Z,54.07
2022-09-14T02:57:04.709Z,53.83
2022-09-14T02:59:31.371Z,53.92
2022-09-14T03:02:00.234Z,54.31
2022-09-14T03:04:28.548Z,54.43
2022-09-14T03:06:55.317Z,54.17
2022-09-14T03:09:21.746Z,54.25
2022-09-14T03:11:48.200Z,54.27
2022-09-14T03:14:19.029Z,54.45
2022-09-14T03:16:45.905Z,54.42
2022-09-14T03:19:12.450Z,54.54
2022-09-14T03:21:39.828Z,54.42
2022-09-14T03:24:06.617Z,54.43
2022-09-14T03:26:36.718Z,54.69
2022-09-14T03:29:04.626Z,54.85
2022-09-14T03:31:31.951Z,54.78
2022-09-14T03:34:02.759Z,54.77
2022-09-14T03:36:31.274Z,54.77
2022-09-14T03:39:01.696Z,55.00
2022-09-14T03:41:28.557Z,54.66
2022-09-14T03:43:58.125Z,55.11
2022-09-14T03:46:25.694Z,55.05
2022-09-14T03:48:53.695Z,55.32
2022-09-14T03:51:20.363Z,55.07
2022-09-14T03:53:48.672Z,55.33
2022-09-14T03:56:18.053Z,54.99
2022-09-14T03:58:46.178Z,55.19
2022-09-14T04:01:16.030Z,55.24
2022-09-14T04:03:44.835Z,55.46
2022-09-14T04:06:11.729Z,55.17
2022-09-14T04:08:40.820Z,55.41
2022-09-14T04:11:11.451Z,55.49
2022-09-14T04:13:43.103Z,55.43
2022-09-14T04:16:10.087Z,55.53
2022-09-14T04:18:36.597Z,55.75
2022-09-14T04:21:08.489Z,55.40
2022-09-14T04:23:56.920Z,55.56
2022-09-14T04:26:29.962Z,55.39
2022-09-14T04:28:57.412Z,55.25
2022-09-14T04:31:24.803Z,55.55
2022-09-14T04:33:56.987Z,55.54
2022-09-14T04:36:28.405Z,55.52
2022-09-14T04:38:57.095Z,55.53
2022-09-14T04:41:24.674Z,55.67
2022-09-14T04:43:56.373Z,55.72
2022-09-14T04:46:25.675Z,55.56
2022-09-14T04:48:52.482Z,55.85
2022-09-14T04:51:25.981Z,56.00
2022-09-14T04:54:02.223Z,55.78
2022-09-14T04:56:32.260Z,55.81
2022-09-14T04:59:00.792Z,55.91
2022-09-14T05:01:33.482Z,55.68
2022-09-14T05:04:00.599Z,55.61
2022-09-14T05:06:29.662Z,56.01
2022-09-14T05:08:57.301Z,56.08
2022-09-14T05:11:26.627Z,56.24
2022-09-14T05:13:58.211Z,55.93
2022-09-14T05:16:28.422Z,56.08
2022-09-14T05:18:57.858Z,56.22
2022-09-14T05:21:24.819Z,55.97
2022-09-14T05:23:58.510Z,56.49
2022-09-14T05:26:27.248Z,56.22
2022-09-14T05:28:55.934Z,56.14
2022-09-14T05:31:23.918Z,56.34
2022-09-14T05:33:54.721Z,56.12
2022-09-14T05:36:21.490Z,56.44
2022-09-14T05:38:48.126Z,56.45
2022-09-14T05:41:16.340Z,56.52
2022-09-14T05:43:47.092Z,56.50
2022-09-14T05:46:16.728Z,56.67
2022-09-14T05:48:43.763Z,56.79
2022-09-14T05:51:17.740Z,56.78
2022-09-14T05:53:55.701Z,56.86
2022-09-14T05:56:24.506Z,56.75
2022-09-14T05:58:51.960Z,56.41
2022-09-14T06:01:21.443Z,56.81
2022-09-14T06:03:57.719Z,56.72
2022-09-14T06:06:24.609Z,56.79
2022-09-14T06:08:55.709Z,56.72
2022-09-14T06:11:25.758Z,57.00
2022-09-14T06:13:57.721Z,56.83
2022-09-14T06:16:26.136Z,57.08
2022-09-14T06:18:55.093Z,57.27
2022-09-14T06:21:22.308Z,56.91
2022-09-14T06:23:53.207Z,57.22
2022-09-14T06:26:20.910Z,57.01
2022-09-14T06:28:47.863Z,57.38
2022-09-14T06:31:15.764Z,57.07
2022-09-14T06:33:45.098Z,57.24
2022-09-14T06:36:15.032Z,56.96
2022-09-14T06:38:42.016Z,57.27
2022-09-14T06:41:10.989Z,57.00
2022-09-14T06:43:40.240Z,57.08
2022-09-14T06:46:11.246Z,57.18
2022-09-14T06:48:41.255Z,57.38
2022-09-14T06:51:32.623Z,57.25
2022-09-14T06:54:03.047Z,57.38
2022-09-14T06:56:32.561Z,57.23
2022-09-14T06:58:59.479Z,57.59
2022-09-14T07:01:26.803Z,57.73
2022-09-14T07:03:58.208Z,57.86
2022-09-14T07:06:27.457Z,57.49
2022-09-14T07:08:54.459Z,57.76
2022-09-14T07:11:23.817Z,57.80
2022-09-14T07:13:55.553Z,57.65
2022-09-14T07:16:22.067Z,57.64
2022-09-14T07:18:48.742Z,57.68
2022-09-14T07:21:17.890Z,57.43
2022-09-14T07:23:48.414Z,57.26
2022-09-14T07:26:29.162Z,57.56
2022-09-14T07:28:59.358Z,57.47
2022-09-14T07:31:38.142Z,57.60
2022-09-14T07:34:06.347Z,57.66
2022-09-14T07:36:35.283Z,57.36
2022-09-14T07:39:04.701Z,57.45
2022-09-14T07:41:34.072Z,57.62
2022-09-14T07:44:06.114Z,58.02
2022-09-14T07:46:39.275Z,57.96
2022-09-14T07:49:07.092Z,57.71
2022-09-14T07:51:34.965Z,57.54
2022-09-14T07:54:05.332Z,57.94
2022-09-14T07:56:31.907Z,57.79
2022-09-14T07:59:23.768Z,58.08
2022-09-14T08:01:46.808Z,58.13
2022-09-14T08:04:17.799Z,58.03
2022-09-14T08:06:44.752Z,57.75
2022-09-14T08:09:11.175Z,58.00
2022-09-14T08:11:38.129Z,58.05
2022-09-14T08:14:11.492Z,57.90
2022-09-14T08:16:40.338Z,58.07
2022-09-14T08:19:12.526Z,58.26
2022-09-14T08:21:42.816Z,58.20
2022-09-14T08:24:13.466Z,58.26
2022-09-14T08:26:42.745Z,58.11
2022-09-14T08:29:09.296Z,57.98
2022-09-14T08:31:38.638Z,57.92
2022-09-14T08:34:08.721Z,58.01
2022-09-14T08:36:38.846Z,57.71
2022-09-14T08:39:09.181Z,58.18
2022-09-14T08:41:41.240Z,58.25
2022-09-14T08:44:20.819Z,58.16
2022-09-14T08:47:12.145Z,58.17
2022-09-14T08:50:09.267Z,58.24
2022-09-14T08:52:45.702Z,57.94
2022-09-14T08:55:49.588Z,58.07
2022-09-14T08:58:40.622Z,58.04
2022-09-14T09:01:37.336Z,57.94
2022-09-14T09:04:15.725Z,58.23
2022-09-14T09:06:54.403Z,58.01
2022-09-14T09:09:38.033Z,58.30
2022-09-14T09:12:05.598Z,58.42
2022-09-14T09:14:40.064Z,57.95
2022-09-14T09:17:26.124Z,58.37
2022-09-14T09:20:00.217Z,58.31
2022-09-14T09:22:33.204Z,58.31
2022-09-14T09:25:03.095Z,58.17
2022-09-14T09:27:29.503Z,58.07
2022-09-14T09:29:55.974Z,58.25
2022-09-14T09:32:26.720Z,58.05
2022-09-14T09:35:19.826Z,57.99
2022-09-14T09:37:55.110Z,58.17
2022-09-14T09:40:37.620Z,58.27
2022-09-14T09:43:05.857Z,58.02
2022-09-14T09:45:58.799Z,58.03
2022-09-14T09:48:31.026Z,57.92
2022-09-14T09:51:06.767Z,58.03
2022-09-14T09:53:45.670Z,58.25
2022-09-14T09:56:24.213Z,58.29
2022-09-14T09:58:52.051Z,57.91
2022-09-14T10:01:35.536Z,58.13
2022-09-14T10:04:20.496Z,58.00
2022-09-14T10:06:49.726Z,58.23
2022-09-14T10:09:21.919Z,58.09
2022-09-14T10:11:57.279Z,58.07
2022-09-14T10:14:31.345Z,58.21
2022-09-14T10:17:14.930Z,58.42
2022-09-14T10:19:47.899Z,58.24
2022-09-14T10:22:30.971Z,58.68
2022-09-14T10:24:58.241Z,58.81
2022-09-14T10:27:39.691Z,58.85
2022-09-14T10:30:12.945Z,58.71
2022-09-14T10:32:43.001Z,58.81
2022-09-14T10:35:15.307Z,58.49
2022-09-14T10:38:15.936Z,58.17
2022-09-14T10:40:45.722Z,58.37
2022-09-14T10:43:53.276Z,58.65
2022-09-14T10:46:31.022Z,58.43
2022-09-14T10:49:03.674Z,58.40
2022-09-14T10:51:48.733Z,58.07
2022-09-14T10:54:31.573Z,57.98
2022-09-14T10:57:22.713Z,58.11
2022-09-14T11:00:14.663Z,57.72
2022-09-14T11:03:33.795Z,57.82
2022-09-14T11:06:14.395Z,57.98
2022-09-14T11:09:00.346Z,57.95
2022-09-14T11:11:37.707Z,58.04
2022-09-14T11:14:14.085Z,57.89
2022-09-14T11:16:47.609Z,57.84
2022-09-14T11:19:48.135Z,58.14
2022-09-14T11:22:42.887Z,57.79
2022-09-14T11:25:16.633Z,57.72
2022-09-14T11:27:48.990Z,57.91
2022-09-14T11:30:19.294Z,57.32
2022-09-14T11:32:57.777Z,57.58
2022-09-14T11:35:34.145Z,57.50
2022-09-14T11:38:12.941Z,57.76
2022-09-14T11:41:06.050Z,57.68
2022-09-14T11:43:50.945Z,57.28
2022-09-14T11:46:35.037Z,57.27
2022-09-14T11:49:09.590Z,57.21
2022-09-14T11:51:46.851Z,57.59
2022-09-14T11:54:20.460Z,57.54
2022-09-14T11:56:49.539Z,57.37
2022-09-14T11:59:55.581Z,57.13
2022-09-14T12:02:24.891Z,57.45
2022-09-14T12:05:10.371Z,57.61
2022-09-14T12:07:39.923Z,57.41
2022-09-14T12:10:24.849Z,57.67
2022-09-14T12:12:58.672Z,57.59
2022-09-14T12:15:25.149Z,57.68
2022-09-14T12:17:53.897Z,57.54
2022-09-14T12:20:43.292Z,57.99
2022-09-14T12:23:29.939Z,57.81
2022-09-14T12:26:17.933Z,57.79
2022-09-14T12:28:48.849Z,57.81
2022-09-14T12:31:44.626Z,58.09
2022-09-14T12:34:23.969Z,58.09
2022-09-14T12:36:50.464Z,58.11
2022-09-14T12:39:34.930Z,57.95
2022-09-14T12:42:25.206Z,58.37
2022-09-14T12:44:55.418Z,58.02
2022-09-14T12:47:24.618Z,58.18
2022-09-14T12:49:53.088Z,58.09
2022-09-14T12:52:32.019Z,58.23
2022-09-14T12:55:47.313Z,58.57
2022-09-14T12:58:42.275Z,58.10
2022-09-14T13:01:19.702Z,58.59
2022-09-14T13:03:56.240Z,58.66
2022-09-14T13:06:25.356Z,58.52
2022-09-14T13:08:58.450Z,58.69
2022-09-14T13:11:36.923Z,58.69
2022-09-14T13:14:17.510Z,58.50
2022-09-14T13:16:46.509Z,58.41
2022-09-14T13:19:27.900Z,58.64
2022-09-14T13:21:56.678Z,58.43
2022-09-14T13:24:51.560Z,58.07
2022-09-14T13:27:27.745Z,58.06
2022-09-14T13:30:06.541Z,58.28
2022-09-14T13:32:36.063Z,57.93
2022-09-14T13:35:15.582Z,58.02
2022-09-14T13:37:46.243Z,57.90
2022-09-14T13:40:15.082Z,57.92
2022-09-14T13:42:41.789Z,58.21
2022-09-14T13:45:10.090Z,57.97
2022-09-14T13:47:39.531Z,58.21
2022-09-14T13:50:07.200Z,58.13
2022-09-14T13:53:00.587Z,58.48
2022-09-14T13:55:33.414Z,58.52
2022-09-14T13:58:08.909Z,58.56
2022-09-14T14:00:57.074Z,58.33
2022-09-14T14:03:49.256Z,58.31
2022-09-14T14:06:37.860Z,58.32
2022-09-14T14:09:07.957Z,58.18
2022-09-14T14:11:45.517Z,58.38
2022-09-14T14:14:18.429Z,58.22
2022-09-14T14:17:12.634Z,58.86
2022-09-14T14:19:43.734Z,58.47
2022-09-14T14:22:16.399Z,58.56
2022-09-14T14:25:12.349Z,58.26
2022-09-14T14:27:41.495Z,58.67
2022-09-14T14:30:21.416Z,58.64
2022-09-14T14:32:54.997Z,58.57
2022-09-14T14:35:25.183Z,58.63
2022-09-14T14:37:51.734Z,58.47
2022-09-14T14:40:19.743Z,58.73
2022-09-14T14:42:49.042Z,58.57
2022-09-14T14:45:19.460Z,58.87
2022-09-14T14:47:47.628Z,58.38
2022-09-14T14:50:16.625Z,58.53
2022-09-14T14:52:43.626Z,58.65
2022-09-14T14:55:14.829Z,58.26
2022-09-14T14:57:41.349Z,58.72
2022-09-14T15:00:23.523Z,58.68
2022-09-14T15:02:51.032Z,58.92
2022-09-14T15:05:19.891Z,58.76
2022-09-14T15:07:47.583Z,59.10
2022-09-14T15:10:16.293Z,58.88
2022-09-14T15:12:43.186Z,58.72
2022-09-14T15:15:15.115Z,58.78
2022-09-14T15:17:42.441Z,58.65
2022-09-14T15:20:12.972Z,58.60
2022-09-14T15:22:42.396Z,59.02
2022-09-14T15:25:10.204Z,58.89
2022-09-14T15:27:36.851Z,58.81
2022-09-14T15:30:04.810Z,58.78
2022-09-14T15:32:31.316Z,58.94
2022-09-14T15:34:59.110Z,58.98
2022-09-14T15:37:25.592Z,59.18
2022-09-14T15:39:52.105Z,59.15
2022-09-14T15:42:18.873Z,59.23
2022-09-14T15:44:47.199Z,58.81
2022-09-14T15:47:14.854Z,59.08
2022-09-14T15:49:42.365Z,59.32
2022-09-14T15:52:10.845Z,59.33
2022-09-14T15:54:38.381Z,59.14
2022-09-14T15:57:08.337Z,58.86
2022-09-14T15:59:35.359Z,58.93
2022-09-14T16:02:02.315Z,59.24
2022-09-14T16:04:36.441Z,59.11
2022-09-14T16:07:05.316Z,59.07
2022-09-14T16:09:31.802Z,58.99
2022-09-14T16:12:01.592Z,59.25
2022-09-14T16:14:32.851Z,59.08
2022-09-14T16:17:00.207Z,59.07
2022-09-14T16:19:27.048Z,59.02
2022-09-14T16:21:53.920Z,58.84
2022-09-14T16:24:23.777Z,58.59
2022-09-14T16:26:50.995Z,58.66
2022-09-14T16:29:19.585Z,58.88
2022-09-14T16:31:47.659Z,58.77
2022-09-14T16:34:20.838Z,58.86
2022-09-14T16:36:48.265Z,58.59
2022-09-14T16:39:17.895Z,58.73
2022-09-14T16:41:45.357Z,58.55
2022-09-14T16:44:17.527Z,58.56
2022-09-14T16:46:44.606Z,58.42
2022-09-14T16:49:11.906Z,58.62
2022-09-14T16:51:38.767Z,58.65
2022-09-14T16:54:09.238Z,58.60
2022-09-14T16:56:37.846Z,58.48
2022-09-14T16:59:05.518Z,58.59
2022-09-14T17:01:36.646Z,58.48
2022-09-14T17:04:08.433Z,58.62
2022-09-14T17:06:37.389Z,58.68
2022-09-14T17:09:07.472Z,58.48
2022-09-14T17:11:35.670Z,58.19
2022-09-14T17:14:04.415Z,58.33
2022-09-14T17:16:30.989Z,58.56
2022-09-14T17:19:00.389Z,58.29
2022-09-14T17:21:29.840Z,58.32
2022-09-14T17:23:58.328Z,58.31
2022-09-14T17:26:25.383Z,58.03
2022-09-14T17:28:55.653Z,58.27
2022-09-14T17:31:25.282Z,57.84
2022-09-14T17:33:53.953Z,58.17
2022-09-14T17:36:21.140Z,58.03
2022-09-14T17:38:48.894Z,57.95
2022-09-14T17:41:20.610Z,58.06
2022-09-14T17:43:53.316Z,58.37
2022-09-14T17:46:22.473Z,58.10
2022-09-14T17:48:50.082Z,58.22
2022-09-14T17:51:25.289Z,58.17
2022-09-14T17:53:57.501Z,58.15
2022-09-14T17:56:26.374Z,58.29
2022-09-14T17:59:03.913Z,58.26
2022-09-14T18:01:31.506Z,58.21
2022-09-14T18:04:05.659Z,58.21
2022-09-14T18:06:35.651Z,58.14
2022-09-14T18:09:06.259Z,58.30
2022-09-14T18:11:33.870Z,58.14
2022-09-14T18:14:04.600Z,58.16
2022-09-14T18:16:31.815Z,58.52
2022-09-14T18:18:58.670Z,58.35
2022-09-14T18:21:26.401Z,58.20
2022-09-14T18:23:55.722Z,58.28
2022-09-14T18:26:23.771Z,58.39
2022-09-14T18:28:53.431Z,58.47
2022-09-14T18:31:19.965Z,58.47
2022-09-14T18:33:52.959Z,58.22
2022-09-14T18:36:20.434Z,58.09
2022-09-14T18:38:48.577Z,58.46
2022-09-14T18:41:17.186Z,58.52
2022-09-14T18:43:47.054Z,58.41
2022-09-14T18:46:14.713Z,58.19
2022-09-14T18:48:43.597Z,58.64
2022-09-14T18:51:12.009Z,58.14
2022-09-14T18:53:40.954Z,58.00
2022-09-14T18:56:10.590Z,58.00
2022-09-14T18:58:39.234Z,58.32
2022-09-14T19:01:06.335Z,58.09
2022-09-14T19:03:37.310Z,58.24
2022-09-14T19:06:06.568Z,58.11
2022-09-14T19:08:33.414Z,57.98
2022-09-14T19:11:05.932Z,58.25
2022-09-14T19:13:36.917Z,58.26
2022-09-14T19:16:12.791Z,58.26
2022-09-14T19:18:40.005Z,58.46
2022-09-14T19:21:08.479Z,58.29
2022-09-14T19:23:39.140Z,58.50
2022-09-14T19:26:08.536Z,58.73
2022-09-14T19:28:37.310Z,58.36
2022-09-14T19:31:09.479Z,58.26
2022-09-14T19:33:45.218Z,58.59
2022-09-14T19:36:19.794Z,58.52
2022-09-14T19:38:47.831Z,58.12
2022-09-14T19:41:14.556Z,58.18
2022-09-14T19:43:44.897Z,58.50
2022-09-14T19:46:14.256Z,58.54
2022-09-14T19:48:42.302Z,58.54
2022-09-14T19:51:12.470Z,58.33
2022-09-14T19:53:42.265Z,58.65
2022-09-14T19:56:12.574Z,58.47
2022-09-14T19:58:40.972Z,58.99
2022-09-14T20:01:08.726Z,58.70
2022-09-14T20:03:37.215Z,58.80
2022-09-14T20:06:19.279Z,59.16
2022-09-14T20:08:47.185Z,58.90
2022-09-14T20:11:19.769Z,58.63
2022-09-14T20:13:48.493Z,58.81
2022-09-14T20:16:21.254Z,58.44
2022-09-14T20:18:49.293Z,58.75
2022-09-14T20:21:21.037Z,58.40
2022-09-14T20:24:16.948Z,58.18
2022-09-14T20:26:48.978Z,58.12
2022-09-14T20:29:17.491Z,58.41
2022-09-14T20:31:44.894Z,58.31
2022-09-14T20:34:16.528Z,58.04
2022-09-14T20:36:43.150Z,58.31
2022-09-14T20:39:09.852Z,58.36
2022-09-14T20:41:36.635Z,58.09
2022-09-14T20:44:05.446Z,58.28
2022-09-14T20:46:35.200Z,57.83
2022-09-14T20:49:04.250Z,57.96
2022-09-14T20:51:31.086Z,58.02
2022-09-14T20:53:58.316Z,57.74
2022-09-14T20:56:27.554Z,57.80
2022-09-14T20:58:59.078Z,57.73
2022-09-14T21:01:29.109Z,57.62
2022-09-14T21:04:14.825Z,57.89
2022-09-14T21:06:44.882Z,58.00
2022-09-14T21:09:12.489Z,57.84
2022-09-14T21:11:39.374Z,57.86
2022-09-14T21:14:10.219Z,58.28
2022-09-14T21:16:42.667Z,58.18
2022-09-14T21:19:14.159Z,58.25
2022-09-14T21:21:42.018Z,58.28
2022-09-14T21:24:13.522Z,58.40
2022-09-14T21:26:42.868Z,58.04
2022-09-14T21:29:13.313Z,58.51
2022-09-14T21:31:39.942Z,58.15
2022-09-14T21:34:10.112Z,58.28
2022-09-14T21:36:46.438Z,58.68
2022-09-14T21:39:16.419Z,58.30
2022-09-14T21:41:44.772Z,58.53
2022-09-14T21:44:12.461Z,58.49
2022-09-14T21:46:39.041Z,58.66
2022-09-14T21:49:05.815Z,58.57
2022-09-14T21:51:35.450Z,58.31
2022-09-14T21:54:08.641Z,58.88
2022-09-14T21:56:37.863Z,58.41
2022-09-14T21:59:07.543Z,58.80
2022-09-14T22:01:34.389Z,58.45
2022-09-14T22:04:04.508Z,58.91
2022-09-14T22:06:32.434Z,58.90
2022-09-14T22:09:01.017Z,58.83
2022-09-14T22:11:31.219Z,58.87
2022-09-14T22:14:02.486Z,59.06
2022-09-14T22:16:32.922Z,59.07
2022-09-14T22:19:03.994Z,59.45
2022-09-14T22:21:32.663Z,59.37
2022-09-14T22:24:05.229Z,59.46
2022-09-14T22:26:33.624Z,59.57
2022-09-14T22:29:00.671Z,59.39
2022-09-14T22:31:29.632Z,59.44
2022-09-14T22:33:58.019Z,59.51
2022-09-14T22:36:25.769Z,59.38
2022-09-14T22:38:55.651Z,59.79
2022-09-14T22:41:22.870Z,59.89
2022-09-14T22:43:54.484Z,59.72
2022-09-14T22:46:22.486Z,59.95
2022-09-14T22:48:50.462Z,60.02
2022-09-14T22:51:21.744Z,60.36
2022-09-14T22:53:52.942Z,60.17
2022-09-14T22:56:21.556Z,60.26
2022-09-14T22:58:48.846Z,59.94
2022-09-14T23:01:22.153Z,60.49
2022-09-14T23:04:05.414Z,60.04
2022-09-14T23:06:38.662Z,60.47
2022-09-14T23:09:06.893Z,60.18
2022-09-14T23:11:33.437Z,60.44
2022-09-14T23:14:00.778Z,60.23
2022-09-14T23:16:29.523Z,60.35
2022-09-14T23:18:59.220Z,60.23
2022-09-14T23:21:26.612Z,60.32
2022-09-14T23:23:57.734Z,59.98
2022-09-14T23:26:25.015Z,60.26
2022-09-14T23:29:02.253Z,60.32
2022-09-14T23:31:29.986Z,60.00
2022-09-14T23:34:00.299Z,59.86
2022-09-14T23:36:27.379Z,60.02
2022-09-14T23:38:54.381Z,59.79
2022-09-14T23:41:22.843Z,59.68
2022-09-14T23:43:51.265Z,59.90
2022-09-14T23:46:19.052Z,59.45
2022-09-14T23:48:45.978Z,59.64
2022-09-14T23:51:13.222Z,59.46
2022-09-14T23:53:44.708Z,59.43
2022-09-14T23:56:12.122Z,59.18
2022-09-14T23:58:41.349Z,59.50
